Time;durP1;ratioP1;P1;durP2;ratioP2;P2;SDS_P1;SDS_P2;PMS_P1;PMS_P2;Temp;Humidity;BMP_temperature;BMP_pressure;BME280_temperature;BME280_humidity;BME280_pressure;Samples;Min_cycle;Max_cycle;Signal;HPM_P1;HPM_P2
2022/02/10 00:06:33;;;;;;;4.67;1.97;;;2.60;99.90;;;;;;6216655;28;20303;-73
2022/02/10 00:17:00;;;;;;;6.00;1.60;;;2.50;99.90;;;;;;6255919;28;20550;-73
2022/02/10 00:20:21;;;;;;;4.27;1.97;;;2.50;99.90;;;;;;6240228;28;20553;-73
2022/02/10 00:37:13;;;;;;;2.27;1.30;;;2.40;99.90;;;;;;6240673;28;20291;-74
2022/02/10 00:40:20;;;;;;;3.77;1.40;;;2.40;99.90;;;;;;6239906;28;20274;-73
2022/02/10 00:43:26;;;;;;;4.60;1.50;;;2.50;99.90;;;;;;6240079;28;20302;-73
2022/02/10 00:46:31;;;;;;;4.83;1.50;;;2.50;99.90;;;;;;6240233;28;20268;-73
2022/02/10 00:49:36;;;;;;;5.43;1.90;;;2.50;99.90;;;;;;6239827;28;20297;-73
2022/02/10 00:52:44;;;;;;;4.47;1.60;;;2.40;99.90;;;;;;6240062;28;20306;-73
2022/02/10 00:55:49;;;;;;;6.43;1.60;;;2.40;99.90;;;;;;6240336;28;20276;-73
2022/02/10 00:59:07;;;;;;;5.07;1.80;;;2.40;99.90;;;;;;6239656;28;20366;-72
2022/02/10 01:02:34;;;;;;;4.87;1.70;;;2.30;99.90;;;;;;6239161;28;20280;-72
2022/02/10 01:12:42;;;;;;;4.83;1.70;;;2.30;99.90;;;;;;6219302;28;20300;-72
2022/02/10 01:29:40;;;;;;;5.80;1.80;;;2.30;99.90;;;;;;6214974;28;20295;-72
2022/02/10 01:32:49;;;;;;;5.67;2.00;;;2.20;99.90;;;;;;6214057;28;20321;-73
2022/02/10 01:35:54;;;;;;;5.37;1.70;;;2.20;99.90;;;;;;6229676;28;20273;-73
2022/02/10 01:39:00;;;;;;;6.30;1.60;;;2.20;99.90;;;;;;6214391;28;20430;-72
2022/02/10 02:06:02;;;;;;;7.27;1.83;;;2.20;99.90;;;;;;6214624;28;20299;-72
2022/02/10 02:09:10;;;;;;;6.77;2.23;;;2.20;99.90;;;;;;6213656;28;20300;-72
2022/02/10 02:12:16;;;;;;;7.17;2.00;;;2.20;99.90;;;;;;6213253;28;20276;-72
2022/02/10 02:15:23;;;;;;;5.90;1.57;;;2.20;99.90;;;;;;6213364;28;20285;-72
2022/02/10 02:18:28;;;;;;;7.07;2.27;;;2.20;99.90;;;;;;6213523;28;20298;-73
2022/02/10 02:21:36;;;;;;;10.03;1.90;;;2.10;99.90;;;;;;6213407;28;20276;-73
2022/02/10 02:24:42;;;;;;;5.80;1.50;;;2.10;99.90;;;;;;6213261;28;20478;-72
2022/02/10 02:27:50;;;;;;;2.37;1.60;;;2.10;99.90;;;;;;6213069;28;20300;-72
2022/02/10 02:31:00;;;;;;;6.70;2.10;;;2.10;99.90;;;;;;6213028;28;20269;-73
2022/02/10 03:04:53;;;;;;;1.80;1.70;;;2.10;99.90;;;;;;6212758;28;20297;-73
2022/02/10 03:08:00;;;;;;;5.23;1.73;;;2.20;99.90;;;;;;6212890;28;20305;-73
2022/02/10 03:11:09;;;;;;;4.60;1.60;;;2.20;99.90;;;;;;6227662;28;20265;-73
2022/02/10 03:14:20;;;;;;;8.03;1.87;;;2.20;99.90;;;;;;6255459;28;20304;-73
2022/02/10 03:21:16;;;;;;;3.87;1.77;;;2.10;99.90;;;;;;6261722;28;20285;-74
2022/02/10 04:05:29;;;;;;;8.47;2.20;;;2.30;99.90;;;;;;6259851;28;20284;-74
2022/02/10 04:12:30;;;;;;;6.47;1.80;;;2.20;99.90;;;;;;6234391;28;20565;-73
2022/02/10 04:15:37;;;;;;;5.87;2.20;;;2.20;99.90;;;;;;6239862;28;20289;-71
2022/02/10 04:22:16;;;;;;;6.27;2.03;;;2.20;99.90;;;;;;6240809;28;20273;-74
2022/02/10 04:25:39;;;;;;;8.37;1.60;;;2.20;99.90;;;;;;6241642;28;20282;-73
2022/02/10 04:56:20;;;;;;;8.10;2.03;;;2.10;99.90;;;;;;6265003;28;20292;-72
2022/02/10 04:59:41;;;;;;;6.30;1.80;;;2.20;99.90;;;;;;6243729;28;20455;-73
2022/02/10 05:07:03;;;;;;;7.57;2.10;;;2.20;99.90;;;;;;6239896;28;20309;-72
2022/02/10 05:20:49;;;;;;;10.50;2.17;;;2.20;99.90;;;;;;6239926;28;20272;-72
2022/02/10 05:24:13;;;;;;;7.10;2.10;;;2.20;99.90;;;;;;6239382;28;20300;-72
2022/02/10 05:34:07;;;;;;;8.03;2.30;;;2.20;99.90;;;;;;6238904;28;20296;-73
2022/02/10 05:37:16;;;;;;;8.77;2.00;;;2.20;99.90;;;;;;6238730;28;20293;-73
2022/02/10 05:40:42;;;;;;;6.10;1.80;;;2.20;99.90;;;;;;6239579;28;20375;-72
2022/02/10 05:43:55;;;;;;;7.07;1.90;;;2.20;99.90;;;;;;6238688;28;20379;-72
2022/02/10 05:54:03;;;;;;;5.50;2.20;;;2.30;99.90;;;;;;6238716;28;20593;-72
2022/02/10 05:57:17;;;;;;;3.57;2.03;;;2.30;99.90;;;;;;6237970;28;20290;-73
2022/02/10 06:01:25;;;;;;;12.63;2.20;;;2.30;99.90;;;;;;6238943;28;20274;-73
2022/02/10 06:52:01;;;;;;;8.43;1.90;;;2.30;99.90;;;;;;6262300;28;20272;-73
2022/02/10 06:55:20;;;;;;;4.63;2.17;;;2.30;99.90;;;;;;6261555;28;20281;-72
2022/02/10 07:02:37;;;;;;;5.73;1.70;;;2.30;99.90;;;;;;6248906;28;20316;-74
2022/02/10 07:05:45;;;;;;;10.37;2.13;;;2.30;99.90;;;;;;6237511;28;20294;-73
2022/02/10 07:09:07;;;;;;;10.33;2.40;;;2.40;99.90;;;;;;6236694;28;20298;-73
2022/02/10 07:12:43;;;;;;;8.77;3.20;;;2.50;99.90;;;;;;6237398;28;20447;-73
2022/02/10 07:16:21;;;;;;;6.93;1.90;;;2.50;99.90;;;;;;6237176;28;20452;-73
2022/02/10 07:50:10;;;;;;;6.07;2.10;;;2.60;99.90;;;;;;6239819;28;20469;-75
2022/02/10 07:53:37;;;;;;;5.00;2.03;;;2.60;99.90;;;;;;6240955;28;20298;-74
2022/02/10 08:58:53;;;;;;;5.27;1.80;;;3.20;99.90;;;;;;6227609;28;20300;-73
2022/02/10 09:05:38;;;;;;;3.13;1.60;;;3.10;99.90;;;;;;6224616;28;20276;-73
2022/02/10 09:16:08;;;;;;;10.10;1.87;;;3.20;99.90;;;;;;6181643;28;20279;-73
2022/02/10 10:00:17;;;;;;;3.50;1.57;;;3.60;98.90;;;;;;6178865;28;20285;-73
2022/02/10 10:03:31;;;;;;;3.63;1.43;;;3.70;98.70;;;;;;6201271;28;20291;-72
2022/02/10 10:10:37;;;;;;;4.00;1.47;;;3.70;98.30;;;;;;6257705;28;20282;-73
2022/02/10 10:14:04;;;;;;;6.30;1.50;;;3.70;98.50;;;;;;6247774;28;20315;-73
2022/02/10 10:17:23;;;;;;;8.00;1.70;;;3.70;98.50;;;;;;6238637;28;20281;-73
2022/02/10 10:20:43;;;;;;;3.70;1.50;;;3.80;98.20;;;;;;6239036;28;20369;-74
2022/02/10 10:24:22;;;;;;;7.13;1.50;;;4.00;97.80;;;;;;6238002;28;20466;-74
2022/02/10 10:27:41;;;;;;;5.00;1.23;;;4.00;97.60;;;;;;6237876;28;20556;-74
2022/02/10 10:45:25;;;;;;;5.10;1.57;;;4.20;96.70;;;;;;6237929;28;20310;-73
2022/02/10 10:49:24;;;;;;;7.47;1.60;;;4.20;97.00;;;;;;6238352;28;20299;-74
2022/02/10 10:52:20;;;;;;;8.40;1.60;;;4.20;96.50;;;;;;6237147;28;20275;-74
2022/02/10 10:55:45;;;;;;;7.97;1.50;;;4.20;96.60;;;;;;6238417;28;20453;-73
2022/02/10 10:59:19;;;;;;;5.13;1.20;;;4.20;96.40;;;;;;6237750;28;20303;-73
2022/02/10 11:37:02;;;;;;;3.93;1.20;;;4.50;93.40;;;;;;6217292;28;20272;-73
2022/02/10 11:40:15;;;;;;;2.20;1.13;;;4.50;93.20;;;;;;6217081;28;20300;-72
2022/02/10 11:43:34;;;;;;;3.77;1.20;;;4.50;92.70;;;;;;6228260;28;20334;-74
2022/02/10 12:01:51;;;;;;;5.20;1.00;;;4.60;90.80;;;;;;6240799;28;20299;-73
2022/02/10 12:36:48;;;;;;;4.20;1.20;;;4.60;90.40;;;;;;6263999;28;20268;-73
2022/02/10 12:42:01;;;;;;;2.83;1.10;;;4.70;90.70;;;;;;6264632;28;20303;-72
2022/02/10 13:36:11;;;;;;;4.67;1.17;;;4.50;92.60;;;;;;6247041;28;20294;-73
2022/02/10 14:09:02;;;;;;;4.80;1.30;;;4.50;92.50;;;;;;6262634;28;20297;-74
2022/02/10 14:13:49;;;;;;;4.07;1.10;;;4.50;92.90;;;;;;6263106;28;20481;-74
2022/02/10 14:16:58;;;;;;;3.70;1.00;;;4.40;93.10;;;;;;6263430;28;20447;-74
2022/02/10 14:20:21;;;;;;;5.07;1.27;;;4.40;93.20;;;;;;6261446;28;20298;-74
2022/02/10 14:26:51;;;;;;;7.87;1.37;;;4.40;92.90;;;;;;6262582;28;20295;-74
2022/02/10 14:29:56;;;;;;;7.27;1.07;;;4.40;93.50;;;;;;6262815;28;20298;-73
2022/02/10 14:33:03;;;;;;;5.13;1.20;;;4.30;93.80;;;;;;6262518;28;20311;-74
2022/02/10 14:36:12;;;;;;;3.00;1.40;;;4.30;93.90;;;;;;6262838;28;20274;-74
2022/02/10 14:39:47;;;;;;;8.47;1.60;;;4.20;94.30;;;;;;6262259;28;20310;-73
2022/02/10 14:43:25;;;;;;;2.53;1.37;;;4.30;94.10;;;;;;6261959;28;20307;-74
2022/02/10 15:51:42;;;;;;;4.47;1.70;;;3.50;96.80;;;;;;6261954;28;20377;-73
2022/02/10 15:55:22;;;;;;;9.90;1.47;;;3.50;96.80;;;;;;6238161;28;20300;-73
2022/02/10 16:19:06;;;;;;;1.93;1.27;;;3.30;97.40;;;;;;6210023;28;20345;-74
2022/02/10 16:22:24;;;;;;;4.87;1.07;;;3.20;97.70;;;;;;6243180;28;20295;-74
2022/02/10 16:25:33;;;;;;;1.87;1.13;;;3.30;97.40;;;;;;6264804;28;20276;-75
2022/02/10 16:29:01;;;;;;;4.10;1.40;;;3.30;97.50;;;;;;6248097;28;20314;-74
2022/02/10 16:32:07;;;;;;;5.03;1.33;;;3.20;97.60;;;;;;6240974;28;20274;-75
2022/02/10 16:35:17;;;;;;;4.20;1.17;;;3.20;98.00;;;;;;6240665;28;20280;-73
2022/02/10 16:38:30;;;;;;;4.47;1.40;;;3.20;97.80;;;;;;6240728;28;20297;-73
2022/02/10 16:41:40;;;;;;;2.60;1.40;;;3.20;97.90;;;;;;6240763;28;20578;-73
2022/02/10 16:44:51;;;;;;;4.87;1.50;;;3.10;97.90;;;;;;6240018;28;20598;-73
2022/02/10 16:48:02;;;;;;;4.97;1.30;;;3.10;98.00;;;;;;6240096;28;20303;-73
2022/02/10 16:51:13;;;;;;;3.40;1.27;;;3.10;97.70;;;;;;6239027;28;20429;-74
2022/02/10 16:54:30;;;;;;;7.30;1.60;;;3.10;98.00;;;;;;6239360;28;20371;-74
2022/02/10 16:57:48;;;;;;;1.50;1.20;;;3.00;98.30;;;;;;6270824;28;20311;-72
2022/02/10 17:05:03;;;;;;;3.07;1.00;;;3.00;98.00;;;;;;6237872;28;20295;-73
2022/02/10 17:19:03;;;;;;;5.23;1.33;;;2.80;98.60;;;;;;6206106;28;20306;-73
2022/02/10 17:25:35;;;;;;;2.03;1.20;;;2.70;98.90;;;;;;6238923;28;20443;-72
2022/02/10 17:28:42;;;;;;;7.50;1.50;;;2.70;98.70;;;;;;6239235;28;20306;-73
2022/02/10 17:32:05;;;;;;;7.20;1.20;;;2.70;98.80;;;;;;6238912;28;20275;-73
2022/02/10 17:35:23;;;;;;;7.57;1.20;;;2.80;98.50;;;;;;6239066;28;20281;-74
2022/02/10 17:42:17;;;;;;;4.90;1.30;;;2.80;98.70;;;;;;6238992;28;20268;-74
2022/02/10 17:45:49;;;;;;;3.07;1.00;;;2.80;98.90;;;;;;6237829;28;20465;-76
2022/02/10 17:52:19;;;;;;;2.87;1.30;;;2.70;98.60;;;;;;6238261;28;20281;-74
2022/02/10 17:55:25;;;;;;;4.80;1.50;;;2.70;98.70;;;;;;6239543;28;20277;-73
2022/02/10 17:58:30;;;;;;;7.73;1.70;;;2.70;98.80;;;;;;6239107;28;20299;-75
2022/02/10 18:01:37;;;;;;;4.30;1.40;;;2.70;98.90;;;;;;6238806;28;20275;-74
2022/02/10 18:04:47;;;;;;;4.47;1.50;;;2.80;98.60;;;;;;6253054;28;20481;-74
2022/02/10 18:07:52;;;;;;;3.23;1.40;;;2.80;98.40;;;;;;6237673;28;20302;-74
2022/02/10 18:14:23;;;;;;;10.87;1.40;;;2.70;98.60;;;;;;6237983;28;20322;-73
2022/02/10 18:17:34;;;;;;;1.87;1.20;;;2.70;98.70;;;;;;6238003;28;20298;-74
2022/02/10 18:20:47;;;;;;;3.13;1.20;;;2.60;98.90;;;;;;6238490;28;20279;-72
2022/02/10 18:24:20;;;;;;;3.23;1.13;;;2.60;98.80;;;;;;6238019;28;20300;-74
2022/02/10 18:27:32;;;;;;;8.00;1.30;;;2.60;98.70;;;;;;6237335;28;20589;-76
2022/02/10 18:34:40;;;;;;;4.20;1.20;;;2.60;98.80;;;;;;6237086;28;20586;-75
2022/02/10 19:08:24;;;;;;;11.43;2.90;;;2.20;99.90;;;;;;6237395;28;20592;-77
2022/02/10 19:11:30;;;;;;;11.53;2.80;;;2.20;99.90;;;;;;6236993;28;20324;-74
2022/02/10 19:14:37;;;;;;;15.73;3.03;;;2.20;99.90;;;;;;6252176;28;20323;-76
2022/02/10 19:17:43;;;;;;;7.47;2.33;;;2.20;99.90;;;;;;6237560;28;20576;-76
2022/02/10 19:20:49;;;;;;;8.07;2.17;;;2.20;99.90;;;;;;6236349;28;20300;-77
2022/02/10 19:23:55;;;;;;;4.77;1.77;;;2.20;99.90;;;;;;6237382;28;20477;-76
2022/02/10 19:27:01;;;;;;;4.97;2.00;;;2.20;99.90;;;;;;6237479;28;20272;-76
2022/02/10 19:30:10;;;;;;;6.27;2.13;;;2.20;99.90;;;;;;6237318;28;20576;-76
2022/02/10 19:33:17;;;;;;;7.33;2.90;;;2.10;99.90;;;;;;6236832;28;20296;-76
2022/02/10 19:36:22;;;;;;;16.83;2.80;;;2.10;99.90;;;;;;6238170;28;20265;-74
2022/02/10 19:39:29;;;;;;;12.67;2.67;;;2.10;99.90;;;;;;6240317;28;20300;-75
2022/02/10 19:42:36;;;;;;;5.20;1.73;;;2.10;99.90;;;;;;6236824;28;20300;-75
2022/02/10 19:45:42;;;;;;;9.03;2.13;;;2.10;99.90;;;;;;6241157;28;20289;-74
2022/02/10 19:48:48;;;;;;;6.87;2.40;;;2.00;99.90;;;;;;6239928;28;20299;-75
2022/02/10 19:51:53;;;;;;;9.67;2.10;;;2.00;99.90;;;;;;6242192;28;20272;-75
2022/02/10 19:55:01;;;;;;;5.07;1.70;;;2.00;99.90;;;;;;6240314;28;20580;-75
2022/02/10 19:58:12;;;;;;;4.73;1.47;;;2.00;99.90;;;;;;6241395;28;20276;-75
2022/02/10 20:01:19;;;;;;;2.70;1.47;;;2.00;99.90;;;;;;6241503;28;20300;-75
2022/02/10 20:04:26;;;;;;;9.43;1.67;;;2.00;99.90;;;;;;6241531;28;20292;-75
2022/02/10 20:07:36;;;;;;;8.67;2.37;;;1.90;99.90;;;;;;6241137;28;20301;-75
2022/02/10 20:10:43;;;;;;;4.10;1.47;;;1.90;99.90;;;;;;6241065;28;20467;-74
2022/02/10 20:13:49;;;;;;;4.53;1.83;;;1.90;99.90;;;;;;6241582;28;20269;-75
2022/02/10 20:16:57;;;;;;;6.67;1.80;;;2.00;99.90;;;;;;6241016;28;20280;-74
2022/02/10 20:20:04;;;;;;;2.97;1.53;;;1.90;99.90;;;;;;6241058;28;20293;-74
2022/02/10 20:23:11;;;;;;;6.73;2.20;;;1.90;99.90;;;;;;6241062;28;20272;-74
2022/02/10 20:26:38;;;;;;;6.63;1.70;;;1.90;99.90;;;;;;6241144;28;20584;-74
2022/02/10 20:29:43;;;;;;;8.47;2.40;;;1.90;99.90;;;;;;6240875;28;20309;-73
2022/02/10 20:32:49;;;;;;;6.50;1.77;;;1.90;99.90;;;;;;6240967;28;20272;-73
2022/02/10 20:35:57;;;;;;;3.50;1.67;;;1.80;99.90;;;;;;6240534;28;20306;-74
2022/02/10 20:39:03;;;;;;;7.70;1.90;;;1.90;99.90;;;;;;6239945;28;20276;-73
2022/02/10 20:42:15;;;;;;;8.53;2.00;;;1.80;99.90;;;;;;6240655;28;20278;-73
2022/02/10 20:45:21;;;;;;;3.33;1.60;;;1.80;99.90;;;;;;6240460;28;20323;-74
2022/02/10 20:48:28;;;;;;;3.07;1.60;;;1.80;99.90;;;;;;6240294;28;20275;-75
2022/02/10 20:51:34;;;;;;;1.63;1.53;;;1.80;99.90;;;;;;6240293;28;20576;-72
2022/02/10 20:54:39;;;;;;;5.37;1.67;;;1.80;99.90;;;;;;6240658;28;20308;-72
2022/02/10 20:57:46;;;;;;;6.43;1.70;;;1.80;99.90;;;;;;6239438;28;20454;-73
2022/02/10 21:00:52;;;;;;;5.37;1.70;;;1.70;99.90;;;;;;6240524;28;20292;-73
2022/02/10 21:04:00;;;;;;;7.83;1.70;;;1.70;99.90;;;;;;6239580;28;20452;-73
2022/02/10 21:07:11;;;;;;;5.73;2.00;;;1.70;99.90;;;;;;6240361;28;20312;-73
2022/02/10 21:10:22;;;;;;;2.93;2.00;;;1.70;99.90;;;;;;6239418;28;20581;-73
2022/02/10 21:13:29;;;;;;;3.63;1.60;;;1.80;99.90;;;;;;6239727;28;20278;-73
2022/02/10 21:16:36;;;;;;;1.90;1.53;;;1.80;99.90;;;;;;6238829;28;20311;-74
2022/02/10 21:19:43;;;;;;;6.77;1.50;;;1.70;99.90;;;;;;6239314;28;20296;-73
2022/02/10 21:22:58;;;;;;;4.33;2.00;;;1.70;99.90;;;;;;6238207;28;20486;-73
2022/02/10 21:26:05;;;;;;;3.47;1.60;;;1.60;99.90;;;;;;6239141;28;20322;-73
2022/02/10 21:29:15;;;;;;;10.40;2.43;;;1.70;99.90;;;;;;6239401;28;20293;-73
2022/02/10 21:32:20;;;;;;;6.63;2.40;;;1.60;99.90;;;;;;6239564;28;20560;-74
2022/02/10 21:35:32;;;;;;;12.23;1.80;;;1.60;99.90;;;;;;6238862;28;20614;-74
2022/02/10 21:38:43;;;;;;;5.07;2.00;;;1.60;99.90;;;;;;6239028;28;20269;-73
2022/02/10 21:46:35;;;;;;;5.37;1.83;;;1.50;99.90;;;;;;6221427;28;20301;-73
2022/02/10 21:56:20;;;;;;;11.27;2.17;;;1.40;99.90;;;;;;6239099;28;20304;-72
2022/02/10 22:09:37;;;;;;;9.20;1.93;;;1.30;99.90;;;;;;6222917;28;20292;-73
2022/02/10 22:19:40;;;;;;;9.37;2.10;;;1.10;99.90;;;;;;6222998;28;20299;-73
2022/02/10 22:23:01;;;;;;;5.23;1.63;;;1.10;99.90;;;;;;6238837;28;20274;-73
2022/02/10 22:26:08;;;;;;;5.23;1.70;;;1.00;99.90;;;;;;6238763;28;20304;-73
2022/02/10 22:29:19;;;;;;;4.93;1.90;;;0.90;99.90;;;;;;6237792;28;20295;-73
2022/02/10 22:32:40;;;;;;;4.80;1.93;;;0.90;99.90;;;;;;6238403;28;20274;-72
2022/02/10 22:35:46;;;;;;;6.43;1.57;;;0.90;99.90;;;;;;6238013;28;20312;-72
2022/02/10 22:38:54;;;;;;;6.73;2.00;;;0.90;99.90;;;;;;6237892;28;20271;-74
2022/02/10 22:41:59;;;;;;;8.87;1.97;;;0.90;99.90;;;;;;6238279;28;20279;-73
2022/02/10 22:45:06;;;;;;;11.07;2.20;;;0.90;99.90;;;;;;6237601;28;20475;-73
2022/02/10 22:48:15;;;;;;;4.67;1.90;;;0.80;99.90;;;;;;6238499;28;20328;-73
2022/02/10 22:51:24;;;;;;;8.90;2.10;;;0.80;99.90;;;;;;6237661;28;20304;-73
2022/02/10 22:54:29;;;;;;;5.53;2.10;;;0.70;99.90;;;;;;6252138;28;20307;-73
2022/02/10 22:57:35;;;;;;;5.80;2.10;;;0.70;99.90;;;;;;6238488;28;20279;-73
2022/02/10 23:00:54;;;;;;;9.60;2.17;;;0.70;99.90;;;;;;6237407;28;20304;-73
2022/02/10 23:04:00;;;;;;;5.23;1.70;;;0.70;99.90;;;;;;6237179;28;20574;-73
2022/02/10 23:07:09;;;;;;;2.73;1.40;;;0.60;99.90;;;;;;6235661;28;20304;-73
2022/02/10 23:13:35;;;;;;;7.07;1.90;;;0.50;99.90;;;;;;6237332;28;20446;-73
2022/02/10 23:16:41;;;;;;;4.80;1.73;;;0.50;99.90;;;;;;6237891;28;20314;-72
2022/02/10 23:19:47;;;;;;;4.77;1.70;;;0.40;99.90;;;;;;6236906;28;20335;-73
2022/02/10 23:22:54;;;;;;;6.90;1.90;;;0.40;99.90;;;;;;6237742;28;20297;-73
2022/02/10 23:26:01;;;;;;;6.87;1.83;;;0.40;99.90;;;;;;6236550;28;20610;-73
2022/02/10 23:29:07;;;;;;;2.80;1.70;;;0.40;99.90;;;;;;6236621;28;20289;-73
2022/02/10 23:32:13;;;;;;;5.23;1.80;;;0.40;99.90;;;;;;6237597;28;20275;-73
2022/02/10 23:35:48;;;;;;;6.80;2.13;;;0.40;99.90;;;;;;6236705;28;20478;-73
2022/02/10 23:38:52;;;;;;;6.53;2.20;;;0.40;99.90;;;;;;6236998;28;20581;-75
2022/02/10 23:42:09;;;;;;;5.43;1.80;;;0.30;99.90;;;;;;6237517;28;20271;-74
2022/02/10 23:45:20;;;;;;;3.50;1.73;;;0.40;99.90;;;;;;6236140;28;20298;-73
2022/02/10 23:48:29;;;;;;;9.50;1.80;;;0.40;99.90;;;;;;6236762;28;20289;-73
2022/02/10 23:51:41;;;;;;;4.37;1.63;;;0.30;99.90;;;;;;6236006;28;20506;-73
2022/02/10 23:54:53;;;;;;;2.90;2.20;;;0.30;99.90;;;;;;6236370;28;20302;-73
2022/02/10 23:58:07;;;;;;;7.63;2.03;;;0.30;99.90;;;;;;6236678;28;20464;-73
